sensor_id;sensor_type;location;lat;lon;timestamp;P1;durP1;ratioP1;P2;durP2;ratioP2
19049;SDS011;9657;45.940;12.840;2023-05-07T00:01:14;5.75;;;4.95;;
19049;SDS011;9657;45.940;12.840;2023-05-07T00:03:41;5.53;;;5.03;;
19049;SDS011;9657;45.940;12.840;2023-05-07T00:06:10;6.60;;;5.68;;
19049;SDS011;9657;45.940;12.840;2023-05-07T00:08:37;5.57;;;5.00;;
19049;SDS011;9657;45.940;12.840;2023-05-07T00:11:04;4.95;;;4.55;;
19049;SDS011;9657;45.940;12.840;2023-05-07T00:13:31;5.35;;;4.95;;
19049;SDS011;9657;45.940;12.840;2023-05-07T00:16:00;5.93;;;4.90;;
19049;SDS011;9657;45.940;12.840;2023-05-07T00:18:27;5.43;;;4.93;;
19049;SDS011;9657;45.940;12.840;2023-05-07T00:20:54;5.80;;;5.30;;
19049;SDS011;9657;45.940;12.840;2023-05-07T00:23:23;5.35;;;4.85;;
19049;SDS011;9657;45.940;12.840;2023-05-07T00:25:50;6.28;;;5.50;;
19049;SDS011;9657;45.940;12.840;2023-05-07T00:28:17;6.18;;;5.45;;
19049;SDS011;9657;45.940;12.840;2023-05-07T00:30:44;5.40;;;4.90;;
19049;SDS011;9657;45.940;12.840;2023-05-07T00:33:11;5.28;;;4.78;;
19049;SDS011;9657;45.940;12.840;2023-05-07T00:35:38;5.22;;;4.72;;
19049;SDS011;9657;45.940;12.840;2023-05-07T00:38:05;5.82;;;5.30;;
19049;SDS011;9657;45.940;12.840;2023-05-07T00:40:34;5.65;;;5.15;;
19049;SDS011;9657;45.940;12.840;2023-05-07T00:43:01;5.47;;;5.00;;
19049;SDS011;9657;45.940;12.840;2023-05-07T00:45:29;5.63;;;5.05;;
19049;SDS011;9657;45.940;12.840;2023-05-07T00:47:56;5.70;;;5.20;;
19049;SDS011;9657;45.940;12.840;2023-05-07T00:50:25;5.97;;;5.38;;
19049;SDS011;9657;45.940;12.840;2023-05-07T00:52:53;5.70;;;5.20;;
19049;SDS011;9657;45.940;12.840;2023-05-07T00:55:21;6.22;;;5.72;;
19049;SDS011;9657;45.940;12.840;2023-05-07T00:57:50;5.60;;;5.05;;
19049;SDS011;9657;45.940;12.840;2023-05-07T01:02:53;5.40;;;4.90;;
19049;SDS011;9657;45.940;12.840;2023-05-07T01:05:40;6.97;;;5.30;;
19049;SDS011;9657;45.940;12.840;2023-05-07T01:08:08;5.03;;;4.63;;
19049;SDS011;9657;45.940;12.840;2023-05-07T01:10:36;4.97;;;4.57;;
19049;SDS011;9657;45.940;12.840;2023-05-07T01:13:09;5.25;;;4.75;;
19049;SDS011;9657;45.940;12.840;2023-05-07T01:15:36;5.30;;;4.82;;
19049;SDS011;9657;45.940;12.840;2023-05-07T01:18:05;5.97;;;5.22;;
19049;SDS011;9657;45.940;12.840;2023-05-07T01:20:33;5.45;;;4.88;;
19049;SDS011;9657;45.940;12.840;2023-05-07T01:23:01;5.95;;;5.35;;
19049;SDS011;9657;45.940;12.840;2023-05-07T01:25:30;5.30;;;4.80;;
19049;SDS011;9657;45.940;12.840;2023-05-07T01:27:57;5.63;;;5.10;;
19049;SDS011;9657;45.940;12.840;2023-05-07T01:30:26;4.95;;;4.55;;
19049;SDS011;9657;45.940;12.840;2023-05-07T01:32:56;5.32;;;4.93;;
19049;SDS011;9657;45.940;12.840;2023-05-07T01:35:29;4.85;;;4.45;;
19049;SDS011;9657;45.940;12.840;2023-05-07T01:37:58;5.15;;;4.65;;
19049;SDS011;9657;45.940;12.840;2023-05-07T01:40:28;5.28;;;4.88;;
19049;SDS011;9657;45.940;12.840;2023-05-07T01:42:55;5.55;;;5.05;;
19049;SDS011;9657;45.940;12.840;2023-05-07T01:45:22;5.38;;;4.88;;
19049;SDS011;9657;45.940;12.840;2023-05-07T01:47:49;5.47;;;4.97;;
19049;SDS011;9657;45.940;12.840;2023-05-07T01:50:18;5.05;;;4.55;;
19049;SDS011;9657;45.940;12.840;2023-05-07T01:52:46;5.32;;;4.53;;
19049;SDS011;9657;45.940;12.840;2023-05-07T01:55:15;5.68;;;4.93;;
19049;SDS011;9657;45.940;12.840;2023-05-07T01:57:44;5.03;;;4.57;;
19049;SDS011;9657;45.940;12.840;2023-05-07T02:00:11;4.72;;;4.32;;
19049;SDS011;9657;45.940;12.840;2023-05-07T02:02:38;4.85;;;4.45;;
19049;SDS011;9657;45.940;12.840;2023-05-07T02:05:06;4.78;;;4.35;;
19049;SDS011;9657;45.940;12.840;2023-05-07T02:07:33;4.85;;;4.45;;
19049;SDS011;9657;45.940;12.840;2023-05-07T02:10:00;5.50;;;5.00;;
19049;SDS011;9657;45.940;12.840;2023-05-07T02:12:28;4.95;;;4.50;;
19049;SDS011;9657;45.940;12.840;2023-05-07T02:14:56;4.78;;;4.38;;
19049;SDS011;9657;45.940;12.840;2023-05-07T02:17:23;4.93;;;4.53;;
19049;SDS011;9657;45.940;12.840;2023-05-07T02:19:50;4.70;;;4.30;;
19049;SDS011;9657;45.940;12.840;2023-05-07T02:22:17;5.47;;;4.88;;
19049;SDS011;9657;45.940;12.840;2023-05-07T02:24:44;4.57;;;4.13;;
19049;SDS011;9657;45.940;12.840;2023-05-07T02:27:11;5.32;;;4.82;;
19049;SDS011;9657;45.940;12.840;2023-05-07T02:29:38;4.95;;;4.45;;
19049;SDS011;9657;45.940;12.840;2023-05-07T02:32:07;5.15;;;4.60;;
19049;SDS011;9657;45.940;12.840;2023-05-07T02:34:34;4.80;;;4.40;;
19049;SDS011;9657;45.940;12.840;2023-05-07T02:37:01;4.68;;;4.25;;
19049;SDS011;9657;45.940;12.840;2023-05-07T02:39:28;4.60;;;4.20;;
19049;SDS011;9657;45.940;12.840;2023-05-07T02:41:55;5.35;;;4.47;;
19049;SDS011;9657;45.940;12.840;2023-05-07T02:44:22;5.25;;;4.68;;
19049;SDS011;9657;45.940;12.840;2023-05-07T02:46:49;5.13;;;4.63;;
19049;SDS011;9657;45.940;12.840;2023-05-07T02:49:17;4.82;;;4.43;;
19049;SDS011;9657;45.940;12.840;2023-05-07T02:51:44;4.47;;;4.13;;
19049;SDS011;9657;45.940;12.840;2023-05-07T02:54:11;4.80;;;4.40;;
19049;SDS011;9657;45.940;12.840;2023-05-07T02:56:38;4.38;;;4.07;;
19049;SDS011;9657;45.940;12.840;2023-05-07T02:59:05;5.07;;;4.50;;
19049;SDS011;9657;45.940;12.840;2023-05-07T03:01:32;4.88;;;4.47;;
19049;SDS011;9657;45.940;12.840;2023-05-07T03:03:59;5.00;;;4.60;;
19049;SDS011;9657;45.940;12.840;2023-05-07T03:06:28;4.70;;;4.30;;
19049;SDS011;9657;45.940;12.840;2023-05-07T03:08:55;4.45;;;4.07;;
19049;SDS011;9657;45.940;12.840;2023-05-07T03:11:22;4.65;;;4.25;;
19049;SDS011;9657;45.940;12.840;2023-05-07T03:13:49;5.20;;;4.70;;
19049;SDS011;9657;45.940;12.840;2023-05-07T03:16:17;4.45;;;4.05;;
19049;SDS011;9657;45.940;12.840;2023-05-07T03:18:47;5.13;;;4.57;;
19049;SDS011;9657;45.940;12.840;2023-05-07T03:21:14;4.40;;;4.00;;
19049;SDS011;9657;45.940;12.840;2023-05-07T03:23:43;4.57;;;4.15;;
19049;SDS011;9657;45.940;12.840;2023-05-07T03:26:10;4.70;;;4.20;;
19049;SDS011;9657;45.940;12.840;2023-05-07T03:28:37;4.60;;;4.20;;
19049;SDS011;9657;45.940;12.840;2023-05-07T03:31:04;4.47;;;4.15;;
19049;SDS011;9657;45.940;12.840;2023-05-07T03:33:32;4.45;;;4.05;;
19049;SDS011;9657;45.940;12.840;2023-05-07T03:36:00;4.90;;;4.20;;
19049;SDS011;9657;45.940;12.840;2023-05-07T03:38:27;4.75;;;4.32;;
19049;SDS011;9657;45.940;12.840;2023-05-07T03:40:55;5.72;;;4.72;;
19049;SDS011;9657;45.940;12.840;2023-05-07T03:43:23;4.63;;;4.22;;
19049;SDS011;9657;45.940;12.840;2023-05-07T03:45:50;4.55;;;4.20;;
19049;SDS011;9657;45.940;12.840;2023-05-07T03:48:17;4.30;;;4.00;;
19049;SDS011;9657;45.940;12.840;2023-05-07T03:50:44;4.40;;;4.00;;
19049;SDS011;9657;45.940;12.840;2023-05-07T03:53:11;4.47;;;4.07;;
19049;SDS011;9657;45.940;12.840;2023-05-07T03:55:38;4.50;;;4.10;;
19049;SDS011;9657;45.940;12.840;2023-05-07T03:58:06;4.50;;;4.10;;
19049;SDS011;9657;45.940;12.840;2023-05-07T04:00:33;4.75;;;4.28;;
19049;SDS011;9657;45.940;12.840;2023-05-07T04:03:03;4.25;;;3.95;;
19049;SDS011;9657;45.940;12.840;2023-05-07T04:05:30;4.75;;;4.30;;
19049;SDS011;9657;45.940;12.840;2023-05-07T04:07:57;4.57;;;4.15;;
19049;SDS011;9657;45.940;12.840;2023-05-07T04:10:25;4.32;;;3.92;;
19049;SDS011;9657;45.940;12.840;2023-05-07T04:12:53;4.50;;;4.10;;
19049;SDS011;9657;45.940;12.840;2023-05-07T04:15:21;4.00;;;3.67;;
19049;SDS011;9657;45.940;12.840;2023-05-07T04:17:49;4.40;;;4.10;;
19049;SDS011;9657;45.940;12.840;2023-05-07T04:20:16;4.20;;;3.80;;
19049;SDS011;9657;45.940;12.840;2023-05-07T04:22:43;4.57;;;4.18;;
19049;SDS011;9657;45.940;12.840;2023-05-07T04:25:10;4.85;;;3.90;;
19049;SDS011;9657;45.940;12.840;2023-05-07T04:27:37;4.80;;;4.40;;
19049;SDS011;9657;45.940;12.840;2023-05-07T04:30:05;4.88;;;4.38;;
19049;SDS011;9657;45.940;12.840;2023-05-07T04:32:34;4.53;;;4.13;;
19049;SDS011;9657;45.940;12.840;2023-05-07T04:35:02;5.00;;;3.78;;
19049;SDS011;9657;45.940;12.840;2023-05-07T04:37:29;5.18;;;4.68;;
19049;SDS011;9657;45.940;12.840;2023-05-07T04:39:58;4.50;;;4.10;;
19049;SDS011;9657;45.940;12.840;2023-05-07T04:42:25;4.85;;;3.90;;
19049;SDS011;9657;45.940;12.840;2023-05-07T04:44:52;4.97;;;4.15;;
19049;SDS011;9657;45.940;12.840;2023-05-07T04:47:20;4.90;;;4.40;;
19049;SDS011;9657;45.940;12.840;2023-05-07T04:49:48;4.30;;;3.90;;
19049;SDS011;9657;45.940;12.840;2023-05-07T04:52:15;4.25;;;3.85;;
19049;SDS011;9657;45.940;12.840;2023-05-07T04:54:42;5.90;;;4.00;;
19049;SDS011;9657;45.940;12.840;2023-05-07T04:57:09;4.80;;;3.92;;
19049;SDS011;9657;45.940;12.840;2023-05-07T04:59:36;4.97;;;4.28;;
19049;SDS011;9657;45.940;12.840;2023-05-07T05:02:03;4.63;;;3.67;;
19049;SDS011;9657;45.940;12.840;2023-05-07T05:04:30;6.10;;;3.70;;
19049;SDS011;9657;45.940;12.840;2023-05-07T05:06:59;5.15;;;3.97;;
19049;SDS011;9657;45.940;12.840;2023-05-07T05:09:26;5.32;;;4.57;;
19049;SDS011;9657;45.940;12.840;2023-05-07T05:11:53;4.25;;;3.83;;
19049;SDS011;9657;45.940;12.840;2023-05-07T05:14:20;5.68;;;4.03;;
19049;SDS011;9657;45.940;12.840;2023-05-07T05:16:47;5.22;;;3.85;;
19049;SDS011;9657;45.940;12.840;2023-05-07T05:19:14;5.30;;;3.78;;
19049;SDS011;9657;45.940;12.840;2023-05-07T05:21:41;3.55;;;3.30;;
19049;SDS011;9657;45.940;12.840;2023-05-07T05:24:10;4.53;;;3.95;;
19049;SDS011;9657;45.940;12.840;2023-05-07T05:26:37;4.32;;;3.95;;
19049;SDS011;9657;45.940;12.840;2023-05-07T05:29:04;4.65;;;3.67;;
19049;SDS011;9657;45.940;12.840;2023-05-07T05:31:31;4.78;;;3.65;;
19049;SDS011;9657;45.940;12.840;2023-05-07T05:33:58;4.20;;;3.80;;
19049;SDS011;9657;45.940;12.840;2023-05-07T05:36:25;4.25;;;3.85;;
19049;SDS011;9657;45.940;12.840;2023-05-07T05:38:52;4.43;;;3.45;;
19049;SDS011;9657;45.940;12.840;2023-05-07T05:41:21;4.30;;;3.90;;
19049;SDS011;9657;45.940;12.840;2023-05-07T05:43:48;4.65;;;4.13;;
19049;SDS011;9657;45.940;12.840;2023-05-07T05:46:15;4.60;;;3.92;;
19049;SDS011;9657;45.940;12.840;2023-05-07T05:48:42;5.22;;;3.95;;
19049;SDS011;9657;45.940;12.840;2023-05-07T05:51:09;4.00;;;3.60;;
19049;SDS011;9657;45.940;12.840;2023-05-07T05:53:36;5.25;;;3.83;;
19049;SDS011;9657;45.940;12.840;2023-05-07T05:56:03;3.20;;;2.90;;
19049;SDS011;9657;45.940;12.840;2023-05-07T05:58:32;3.75;;;3.45;;
19049;SDS011;9657;45.940;12.840;2023-05-07T06:00:59;3.55;;;3.25;;
19049;SDS011;9657;45.940;12.840;2023-05-07T06:03:27;5.10;;;3.78;;
19049;SDS011;9657;45.940;12.840;2023-05-07T06:05:54;4.10;;;3.70;;
19049;SDS011;9657;45.940;12.840;2023-05-07T06:08:21;3.55;;;3.25;;
19049;SDS011;9657;45.940;12.840;2023-05-07T06:10:48;4.30;;;3.90;;
19049;SDS011;9657;45.940;12.840;2023-05-07T06:13:15;3.53;;;3.22;;
19049;SDS011;9657;45.940;12.840;2023-05-07T06:15:44;3.85;;;3.55;;
19049;SDS011;9657;45.940;12.840;2023-05-07T06:18:11;4.53;;;3.65;;
19049;SDS011;9657;45.940;12.840;2023-05-07T06:20:38;3.85;;;3.45;;
19049;SDS011;9657;45.940;12.840;2023-05-07T06:23:05;3.60;;;3.30;;
19049;SDS011;9657;45.940;12.840;2023-05-07T06:25:32;3.90;;;3.50;;
19049;SDS011;9657;45.940;12.840;2023-05-07T06:27:59;4.93;;;3.42;;
19049;SDS011;9657;45.940;12.840;2023-05-07T06:30:26;3.67;;;3.38;;
19049;SDS011;9657;45.940;12.840;2023-05-07T06:32:54;4.10;;;3.58;;
19049;SDS011;9657;45.940;12.840;2023-05-07T06:35:21;5.53;;;3.60;;
19049;SDS011;9657;45.940;12.840;2023-05-07T06:37:48;4.18;;;3.28;;
19049;SDS011;9657;45.940;12.840;2023-05-07T06:40:16;5.45;;;3.33;;
19049;SDS011;9657;45.940;12.840;2023-05-07T06:42:43;4.78;;;3.47;;
19049;SDS011;9657;45.940;12.840;2023-05-07T06:45:10;3.67;;;3.38;;
19049;SDS011;9657;45.940;12.840;2023-05-07T06:47:37;3.65;;;3.35;;
19049;SDS011;9657;45.940;12.840;2023-05-07T06:50:06;3.50;;;3.20;;
19049;SDS011;9657;45.940;12.840;2023-05-07T06:52:34;3.63;;;3.30;;
19049;SDS011;9657;45.940;12.840;2023-05-07T06:55:01;4.68;;;3.50;;
19049;SDS011;9657;45.940;12.840;2023-05-07T06:57:29;4.00;;;3.33;;
19049;SDS011;9657;45.940;12.840;2023-05-07T06:59:56;3.60;;;3.28;;
19049;SDS011;9657;45.940;12.840;2023-05-07T07:02:23;3.55;;;3.22;;
19049;SDS011;9657;45.940;12.840;2023-05-07T07:04:50;3.13;;;2.83;;
19049;SDS011;9657;45.940;12.840;2023-05-07T07:07:18;3.38;;;3.10;;
19049;SDS011;9657;45.940;12.840;2023-05-07T07:09:45;3.55;;;3.17;;
19049;SDS011;9657;45.940;12.840;2023-05-07T07:12:12;4.22;;;3.83;;
19049;SDS011;9657;45.940;12.840;2023-05-07T07:14:39;3.22;;;2.92;;
19049;SDS011;9657;45.940;12.840;2023-05-07T07:17:06;3.72;;;3.38;;
19049;SDS011;9657;45.940;12.840;2023-05-07T07:19:33;3.22;;;2.92;;
19049;SDS011;9657;45.940;12.840;2023-05-07T07:22:00;6.07;;;3.38;;
19049;SDS011;9657;45.940;12.840;2023-05-07T07:24:29;4.03;;;3.50;;
19049;SDS011;9657;45.940;12.840;2023-05-07T07:26:56;4.63;;;3.10;;
19049;SDS011;9657;45.940;12.840;2023-05-07T07:29:23;3.60;;;3.30;;
19049;SDS011;9657;45.940;12.840;2023-05-07T07:31:51;5.00;;;3.55;;
19049;SDS011;9657;45.940;12.840;2023-05-07T07:34:18;4.68;;;3.17;;
19049;SDS011;9657;45.940;12.840;2023-05-07T07:36:45;4.70;;;3.25;;
19049;SDS011;9657;45.940;12.840;2023-05-07T07:39:12;3.47;;;2.92;;
19049;SDS011;9657;45.940;12.840;2023-05-07T07:41:41;4.72;;;3.08;;
19049;SDS011;9657;45.940;12.840;2023-05-07T07:44:08;4.18;;;3.10;;
19049;SDS011;9657;45.940;12.840;2023-05-07T07:46:37;2.85;;;2.65;;
19049;SDS011;9657;45.940;12.840;2023-05-07T07:49:05;4.35;;;3.35;;
19049;SDS011;9657;45.940;12.840;2023-05-07T07:51:32;4.00;;;3.53;;
19049;SDS011;9657;45.940;12.840;2023-05-07T07:53:59;5.53;;;3.53;;
19049;SDS011;9657;45.940;12.840;2023-05-07T07:56:27;4.90;;;3.50;;
19049;SDS011;9657;45.940;12.840;2023-05-07T07:58:56;4.47;;;3.30;;
19049;SDS011;9657;45.940;12.840;2023-05-07T08:01:23;3.40;;;2.95;;
19049;SDS011;9657;45.940;12.840;2023-05-07T08:03:50;5.78;;;3.28;;
19049;SDS011;9657;45.940;12.840;2023-05-07T08:06:17;5.20;;;3.28;;
19049;SDS011;9657;45.940;12.840;2023-05-07T08:08:44;4.18;;;3.15;;
19049;SDS011;9657;45.940;12.840;2023-05-07T08:11:11;3.03;;;2.83;;
19049;SDS011;9657;45.940;12.840;2023-05-07T08:13:38;3.97;;;3.30;;
19049;SDS011;9657;45.940;12.840;2023-05-07T08:16:07;4.57;;;3.13;;
19049;SDS011;9657;45.940;12.840;2023-05-07T08:18:34;4.13;;;3.38;;
19049;SDS011;9657;45.940;12.840;2023-05-07T08:21:01;4.38;;;3.47;;
19049;SDS011;9657;45.940;12.840;2023-05-07T08:23:28;3.45;;;3.15;;
19049;SDS011;9657;45.940;12.840;2023-05-07T08:25:55;4.82;;;3.47;;
19049;SDS011;9657;45.940;12.840;2023-05-07T08:28:22;4.32;;;3.17;;
19049;SDS011;9657;45.940;12.840;2023-05-07T08:30:50;3.70;;;3.40;;
19049;SDS011;9657;45.940;12.840;2023-05-07T08:33:18;5.82;;;3.45;;
19049;SDS011;9657;45.940;12.840;2023-05-07T08:35:45;3.88;;;3.47;;
19049;SDS011;9657;45.940;12.840;2023-05-07T08:38:12;3.53;;;3.13;;
19049;SDS011;9657;45.940;12.840;2023-05-07T08:40:39;3.53;;;3.22;;
19049;SDS011;9657;45.940;12.840;2023-05-07T08:43:07;5.03;;;3.17;;
19049;SDS011;9657;45.940;12.840;2023-05-07T08:45:34;4.13;;;3.42;;
19049;SDS011;9657;45.940;12.840;2023-05-07T08:48:02;3.60;;;3.30;;
19049;SDS011;9657;45.940;12.840;2023-05-07T08:50:33;3.45;;;3.15;;
19049;SDS011;9657;45.940;12.840;2023-05-07T08:53:02;3.58;;;3.05;;
19049;SDS011;9657;45.940;12.840;2023-05-07T08:55:29;3.95;;;2.97;;
19049;SDS011;9657;45.940;12.840;2023-05-07T08:57:58;5.00;;;3.50;;
19049;SDS011;9657;45.940;12.840;2023-05-07T09:00:25;4.43;;;3.45;;
19049;SDS011;9657;45.940;12.840;2023-05-07T09:02:52;3.83;;;3.20;;
19049;SDS011;9657;45.940;12.840;2023-05-07T09:05:19;4.25;;;3.35;;
19049;SDS011;9657;45.940;12.840;2023-05-07T09:07:48;3.83;;;3.42;;
19049;SDS011;9657;45.940;12.840;2023-05-07T09:10:15;4.78;;;3.50;;
19049;SDS011;9657;45.940;12.840;2023-05-07T09:12:42;4.07;;;3.30;;
19049;SDS011;9657;45.940;12.840;2023-05-07T09:15:09;4.32;;;3.55;;
19049;SDS011;9657;45.940;12.840;2023-05-07T09:17:37;6.20;;;4.10;;
19049;SDS011;9657;45.940;12.840;2023-05-07T09:20:06;8.40;;;4.40;;
19049;SDS011;9657;45.940;12.840;2023-05-07T09:22:35;7.32;;;4.90;;
19049;SDS011;9657;45.940;12.840;2023-05-07T09:25:05;5.70;;;4.38;;
19049;SDS011;9657;45.940;12.840;2023-05-07T09:27:33;6.05;;;4.45;;
19049;SDS011;9657;45.940;12.840;2023-05-07T09:30:02;7.80;;;5.32;;
19049;SDS011;9657;45.940;12.840;2023-05-07T09:32:34;9.77;;;5.65;;
19049;SDS011;9657;45.940;12.840;2023-05-07T09:35:03;7.85;;;5.53;;
19049;SDS011;9657;45.940;12.840;2023-05-07T09:37:31;10.15;;;5.82;;
19049;SDS011;9657;45.940;12.840;2023-05-07T09:39:58;11.27;;;5.93;;
19049;SDS011;9657;45.940;12.840;2023-05-07T09:42:26;8.23;;;5.25;;
19049;SDS011;9657;45.940;12.840;2023-05-07T09:44:54;6.72;;;5.30;;
19049;SDS011;9657;45.940;12.840;2023-05-07T09:47:23;9.95;;;5.50;;
19049;SDS011;9657;45.940;12.840;2023-05-07T09:49:52;7.38;;;5.13;;
19049;SDS011;9657;45.940;12.840;2023-05-07T09:52:23;6.80;;;4.75;;
19049;SDS011;9657;45.940;12.840;2023-05-07T09:54:53;6.25;;;4.88;;
19049;SDS011;9657;45.940;12.840;2023-05-07T09:57:24;7.53;;;5.30;;
19049;SDS011;9657;45.940;12.840;2023-05-07T09:59:54;6.47;;;5.25;;
19049;SDS011;9657;45.940;12.840;2023-05-07T10:02:22;8.35;;;5.45;;
19049;SDS011;9657;45.940;12.840;2023-05-07T10:04:51;8.60;;;5.22;;
19049;SDS011;9657;45.940;12.840;2023-05-07T10:07:20;7.90;;;5.65;;
19049;SDS011;9657;45.940;12.840;2023-05-07T10:09:47;8.93;;;6.05;;
19049;SDS011;9657;45.940;12.840;2023-05-07T10:12:16;7.88;;;5.03;;
19049;SDS011;9657;45.940;12.840;2023-05-07T10:14:46;6.53;;;4.90;;
19049;SDS011;9657;45.940;12.840;2023-05-07T10:17:14;5.47;;;4.70;;
19049;SDS011;9657;45.940;12.840;2023-05-07T10:19:44;5.45;;;4.93;;
19049;SDS011;9657;45.940;12.840;2023-05-07T10:22:11;7.65;;;4.78;;
19049;SDS011;9657;45.940;12.840;2023-05-07T10:24:42;7.93;;;4.75;;
19049;SDS011;9657;45.940;12.840;2023-05-07T10:27:10;4.88;;;4.38;;
19049;SDS011;9657;45.940;12.840;2023-05-07T10:29:44;6.68;;;4.38;;
19049;SDS011;9657;45.940;12.840;2023-05-07T10:32:30;7.03;;;4.65;;
19049;SDS011;9657;45.940;12.840;2023-05-07T10:35:03;8.50;;;4.85;;
19049;SDS011;9657;45.940;12.840;2023-05-07T10:37:36;6.28;;;4.50;;
19049;SDS011;9657;45.940;12.840;2023-05-07T10:40:04;7.95;;;5.18;;
19049;SDS011;9657;45.940;12.840;2023-05-07T10:42:32;7.90;;;4.47;;
19049;SDS011;9657;45.940;12.840;2023-05-07T10:45:12;6.40;;;4.30;;
19049;SDS011;9657;45.940;12.840;2023-05-07T10:50:32;6.53;;;4.93;;
19049;SDS011;9657;45.940;12.840;2023-05-07T10:58:51;6.28;;;4.60;;
19049;SDS011;9657;45.940;12.840;2023-05-07T11:04:18;6.40;;;4.00;;
19049;SDS011;9657;45.940;12.840;2023-05-07T11:10:00;6.22;;;4.53;;
19049;SDS011;9657;45.940;12.840;2023-05-07T11:12:48;6.75;;;3.88;;
19049;SDS011;9657;45.940;12.840;2023-05-07T11:18:08;4.70;;;3.85;;
19049;SDS011;9657;45.940;12.840;2023-05-07T11:26:46;6.55;;;4.78;;
19049;SDS011;9657;45.940;12.840;2023-05-07T11:29:15;6.10;;;5.22;;
19049;SDS011;9657;45.940;12.840;2023-05-07T11:31:43;4.97;;;4.30;;
19049;SDS011;9657;45.940;12.840;2023-05-07T11:34:15;7.00;;;4.50;;
19049;SDS011;9657;45.940;12.840;2023-05-07T11:36:47;5.18;;;4.50;;
19049;SDS011;9657;45.940;12.840;2023-05-07T11:39:28;6.00;;;4.60;;
19049;SDS011;9657;45.940;12.840;2023-05-07T11:41:56;8.00;;;4.68;;
19049;SDS011;9657;45.940;12.840;2023-05-07T11:44:23;5.50;;;4.80;;
19049;SDS011;9657;45.940;12.840;2023-05-07T11:46:50;8.45;;;5.28;;
19049;SDS011;9657;45.940;12.840;2023-05-07T11:49:19;5.50;;;4.95;;
19049;SDS011;9657;45.940;12.840;2023-05-07T11:51:46;5.93;;;4.70;;
19049;SDS011;9657;45.940;12.840;2023-05-07T11:54:15;5.75;;;4.82;;
19049;SDS011;9657;45.940;12.840;2023-05-07T11:56:43;6.35;;;4.75;;
19049;SDS011;9657;45.940;12.840;2023-05-07T11:59:11;7.38;;;5.25;;
19049;SDS011;9657;45.940;12.840;2023-05-07T12:01:38;7.50;;;5.32;;
19049;SDS011;9657;45.940;12.840;2023-05-07T12:04:05;7.03;;;4.32;;
19049;SDS011;9657;45.940;12.840;2023-05-07T12:06:36;5.63;;;4.80;;
19049;SDS011;9657;45.940;12.840;2023-05-07T12:09:04;8.15;;;4.90;;
19049;SDS011;9657;45.940;12.840;2023-05-07T12:11:36;5.63;;;4.80;;
19049;SDS011;9657;45.940;12.840;2023-05-07T12:14:04;5.90;;;4.75;;
19049;SDS011;9657;45.940;12.840;2023-05-07T12:16:31;5.68;;;4.50;;
19049;SDS011;9657;45.940;12.840;2023-05-07T12:18:59;6.30;;;4.80;;
19049;SDS011;9657;45.940;12.840;2023-05-07T12:21:26;5.22;;;4.72;;
19049;SDS011;9657;45.940;12.840;2023-05-07T12:23:55;5.10;;;4.45;;
19049;SDS011;9657;45.940;12.840;2023-05-07T12:26:23;6.05;;;4.55;;
19049;SDS011;9657;45.940;12.840;2023-05-07T12:28:50;5.95;;;4.60;;
19049;SDS011;9657;45.940;12.840;2023-05-07T12:31:17;5.40;;;4.70;;
19049;SDS011;9657;45.940;12.840;2023-05-07T12:33:45;4.95;;;4.55;;
19049;SDS011;9657;45.940;12.840;2023-05-07T12:36:12;5.47;;;4.60;;
19049;SDS011;9657;45.940;12.840;2023-05-07T12:38:39;6.32;;;4.53;;
19049;SDS011;9657;45.940;12.840;2023-05-07T12:41:08;7.60;;;4.72;;
19049;SDS011;9657;45.940;12.840;2023-05-07T12:43:37;5.70;;;4.82;;
19049;SDS011;9657;45.940;12.840;2023-05-07T12:46:05;4.88;;;4.25;;
19049;SDS011;9657;45.940;12.840;2023-05-07T12:48:33;6.00;;;4.95;;
19049;SDS011;9657;45.940;12.840;2023-05-07T12:51:02;5.47;;;4.45;;
19049;SDS011;9657;45.940;12.840;2023-05-07T12:53:31;7.70;;;5.05;;
19049;SDS011;9657;45.940;12.840;2023-05-07T12:55:58;6.15;;;4.45;;
19049;SDS011;9657;45.940;12.840;2023-05-07T12:58:28;5.90;;;4.60;;
19049;SDS011;9657;45.940;12.840;2023-05-07T13:00:57;4.80;;;4.30;;
19049;SDS011;9657;45.940;12.840;2023-05-07T13:03:26;4.65;;;4.25;;
19049;SDS011;9657;45.940;12.840;2023-05-07T13:05:54;4.88;;;4.47;;
19049;SDS011;9657;45.940;12.840;2023-05-07T13:08:26;5.35;;;4.50;;
19049;SDS011;9657;45.940;12.840;2023-05-07T13:10:54;5.15;;;4.40;;
19049;SDS011;9657;45.940;12.840;2023-05-07T13:13:22;6.85;;;5.15;;
19049;SDS011;9657;45.940;12.840;2023-05-07T13:15:50;6.78;;;4.93;;
19049;SDS011;9657;45.940;12.840;2023-05-07T13:18:17;6.15;;;4.55;;
19049;SDS011;9657;45.940;12.840;2023-05-07T13:20:44;6.72;;;4.70;;
19049;SDS011;9657;45.940;12.840;2023-05-07T13:23:11;6.03;;;4.22;;
19049;SDS011;9657;45.940;12.840;2023-05-07T13:25:38;5.65;;;4.55;;
19049;SDS011;9657;45.940;12.840;2023-05-07T13:28:05;6.57;;;4.38;;
19049;SDS011;9657;45.940;12.840;2023-05-07T13:30:32;7.60;;;4.78;;
19049;SDS011;9657;45.940;12.840;2023-05-07T13:33:01;5.05;;;4.00;;
19049;SDS011;9657;45.940;12.840;2023-05-07T13:35:28;6.68;;;4.65;;
19049;SDS011;9657;45.940;12.840;2023-05-07T13:37:55;6.22;;;4.97;;
19049;SDS011;9657;45.940;12.840;2023-05-07T13:40:22;6.60;;;4.57;;
19049;SDS011;9657;45.940;12.840;2023-05-07T13:42:50;5.80;;;4.85;;
19049;SDS011;9657;45.940;12.840;2023-05-07T13:45:17;6.10;;;4.35;;
19049;SDS011;9657;45.940;12.840;2023-05-07T13:47:45;5.00;;;4.50;;
19049;SDS011;9657;45.940;12.840;2023-05-07T13:50:15;5.75;;;5.20;;
19049;SDS011;9657;45.940;12.840;2023-05-07T13:52:43;6.13;;;4.80;;
19049;SDS011;9657;45.940;12.840;2023-05-07T13:55:15;6.45;;;4.65;;
19049;SDS011;9657;45.940;12.840;2023-05-07T13:57:42;6.82;;;5.25;;
19049;SDS011;9657;45.940;12.840;2023-05-07T14:00:10;5.32;;;4.63;;
19049;SDS011;9657;45.940;12.840;2023-05-07T14:02:38;6.18;;;4.90;;
19049;SDS011;9657;45.940;12.840;2023-05-07T14:05:05;6.00;;;5.40;;
19049;SDS011;9657;45.940;12.840;2023-05-07T14:07:35;6.07;;;4.38;;
19049;SDS011;9657;45.940;12.840;2023-05-07T14:10:02;5.47;;;4.53;;
19049;SDS011;9657;45.940;12.840;2023-05-07T14:12:31;7.53;;;5.20;;
19049;SDS011;9657;45.940;12.840;2023-05-07T14:14:58;7.07;;;4.93;;
19049;SDS011;9657;45.940;12.840;2023-05-07T14:17:25;5.97;;;5.38;;
19049;SDS011;9657;45.940;12.840;2023-05-07T14:19:53;8.70;;;5.80;;
19049;SDS011;9657;45.940;12.840;2023-05-07T14:22:20;8.75;;;5.43;;
19049;SDS011;9657;45.940;12.840;2023-05-07T14:24:49;8.07;;;5.65;;
19049;SDS011;9657;45.940;12.840;2023-05-07T14:27:17;7.35;;;6.30;;
19049;SDS011;9657;45.940;12.840;2023-05-07T14:29:44;9.65;;;5.63;;
19049;SDS011;9657;45.940;12.840;2023-05-07T14:32:15;11.23;;;5.88;;
19049;SDS011;9657;45.940;12.840;2023-05-07T14:34:43;8.07;;;5.45;;
19049;SDS011;9657;45.940;12.840;2023-05-07T14:37:10;8.57;;;5.70;;
19049;SDS011;9657;45.940;12.840;2023-05-07T14:39:37;5.90;;;5.30;;
19049;SDS011;9657;45.940;12.840;2023-05-07T14:42:06;8.48;;;6.05;;
19049;SDS011;9657;45.940;12.840;2023-05-07T14:44:33;6.03;;;5.43;;
19049;SDS011;9657;45.940;12.840;2023-05-07T14:47:00;6.15;;;5.55;;
19049;SDS011;9657;45.940;12.840;2023-05-07T14:49:27;7.75;;;5.63;;
19049;SDS011;9657;45.940;12.840;2023-05-07T14:51:56;9.70;;;5.78;;
19049;SDS011;9657;45.940;12.840;2023-05-07T14:54:25;6.78;;;5.68;;
19049;SDS011;9657;45.940;12.840;2023-05-07T14:56:52;8.38;;;5.70;;
19049;SDS011;9657;45.940;12.840;2023-05-07T14:59:21;7.45;;;5.57;;
19049;SDS011;9657;45.940;12.840;2023-05-07T15:01:50;8.82;;;6.15;;
19049;SDS011;9657;45.940;12.840;2023-05-07T15:04:17;6.55;;;5.93;;
19049;SDS011;9657;45.940;12.840;2023-05-07T15:06:44;6.03;;;5.43;;
19049;SDS011;9657;45.940;12.840;2023-05-07T15:09:12;5.93;;;5.30;;
19049;SDS011;9657;45.940;12.840;2023-05-07T15:11:39;6.70;;;6.00;;
19049;SDS011;9657;45.940;12.840;2023-05-07T15:14:06;6.22;;;5.22;;
19049;SDS011;9657;45.940;12.840;2023-05-07T15:16:35;6.88;;;6.13;;
19049;SDS011;9657;45.940;12.840;2023-05-07T15:19:02;6.57;;;5.25;;